createdAt,value
2022-10-14T00:01:05.385Z,0.75
2022-10-14T00:03:34.095Z,0.65
2022-10-14T00:06:08.531Z,0.60
2022-10-14T00:08:35.285Z,0.60
2022-10-14T00:11:27.225Z,0.60
2022-10-14T00:13:56.540Z,0.60
2022-10-14T00:16:26.068Z,0.77
2022-10-14T00:18:52.818Z,0.70
2022-10-14T00:21:20.193Z,1.00
2022-10-14T00:23:47.399Z,0.93
2022-10-14T00:26:23.164Z,0.70
2022-10-14T00:28:50.645Z,1.00
2022-10-14T00:31:18.454Z,1.20
2022-10-14T00:33:47.728Z,1.30
2022-10-14T00:36:17.364Z,1.48
2022-10-14T00:38:45.642Z,1.40
2022-10-14T00:41:25.213Z,1.33
2022-10-14T00:44:05.295Z,1.10
2022-10-14T00:46:37.656Z,1.23
2022-10-14T00:49:11.839Z,1.10
2022-10-14T00:51:40.601Z,0.98
2022-10-14T00:54:08.441Z,1.05
2022-10-14T00:56:36.113Z,1.20
2022-10-14T00:59:05.536Z,1.30
2022-10-14T01:01:32.640Z,1.40
2022-10-14T01:03:59.417Z,1.33
2022-10-14T01:06:40.336Z,1.25
2022-10-14T01:09:13.117Z,1.67
2022-10-14T01:11:56.645Z,1.17
2022-10-14T01:17:33.829Z,1.20
2022-10-14T01:20:11.772Z,1.52
2022-10-14T01:22:52.779Z,1.52
2022-10-14T01:25:33.349Z,1.40
2022-10-14T01:28:37.002Z,1.15
2022-10-14T01:31:09.235Z,1.38
2022-10-14T01:33:40.117Z,1.40
2022-10-14T01:36:31.482Z,1.40
2022-10-14T01:39:09.112Z,1.23
2022-10-14T01:41:41.420Z,1.60
2022-10-14T01:44:11.361Z,1.42
2022-10-14T01:46:43.220Z,1.38
2022-10-14T01:49:16.519Z,1.35
2022-10-14T01:51:55.611Z,1.33
2022-10-14T01:54:31.073Z,1.50
2022-10-14T01:57:01.865Z,1.20
2022-10-14T01:59:30.261Z,1.48
2022-10-14T02:01:57.060Z,1.23
2022-10-14T02:04:23.968Z,1.42
2022-10-14T02:07:03.261Z,1.30
2022-10-14T02:09:53.641Z,1.17
2022-10-14T02:12:32.010Z,1.05
2022-10-14T02:15:11.665Z,1.20
2022-10-14T02:17:57.580Z,1.20
2022-10-14T02:20:30.987Z,1.40
2022-10-14T02:23:23.116Z,1.20
2022-10-14T02:25:50.882Z,1.20
2022-10-14T02:28:21.243Z,1.00
2022-10-14T02:30:53.125Z,1.17
2022-10-14T02:33:24.513Z,1.17
2022-10-14T02:35:53.050Z,1.15
2022-10-14T02:38:20.771Z,1.30
2022-10-14T02:40:50.264Z,1.30
2022-10-14T02:43:17.457Z,1.13
2022-10-14T02:45:44.509Z,0.95
2022-10-14T02:48:12.463Z,1.40
2022-10-14T02:50:39.943Z,1.13
2022-10-14T02:53:07.996Z,1.20
2022-10-14T02:55:34.816Z,1.10
2022-10-14T02:58:01.629Z,0.90
2022-10-14T03:00:28.380Z,0.98
2022-10-14T03:02:56.340Z,1.15
2022-10-14T03:05:24.799Z,1.17
2022-10-14T03:07:53.732Z,0.90
2022-10-14T03:10:21.644Z,0.77
2022-10-14T03:12:48.655Z,1.10
2022-10-14T03:15:24.881Z,1.00
2022-10-14T03:17:52.339Z,0.90
2022-10-14T03:20:23.697Z,1.45
2022-10-14T03:22:54.877Z,1.70
2022-10-14T03:25:23.380Z,1.00
2022-10-14T03:27:58.922Z,1.10
2022-10-14T03:30:37.401Z,1.13
2022-10-14T03:33:14.742Z,1.20
2022-10-14T03:35:54.518Z,0.75
2022-10-14T03:38:30.292Z,0.95
2022-10-14T03:40:59.818Z,1.20
2022-10-14T03:43:28.346Z,1.00
2022-10-14T03:45:57.948Z,2.10
2022-10-14T03:48:25.804Z,1.40
2022-10-14T03:50:56.195Z,1.10
2022-10-14T03:53:23.992Z,0.95
2022-10-14T03:55:50.969Z,0.90
2022-10-14T03:58:17.859Z,1.00
2022-10-14T04:00:51.987Z,1.17
2022-10-14T04:03:46.588Z,1.10
2022-10-14T04:06:14.487Z,1.17
2022-10-14T04:08:42.549Z,1.60
2022-10-14T04:11:24.434Z,1.10
2022-10-14T04:13:58.727Z,1.05
2022-10-14T04:16:27.047Z,1.00
2022-10-14T04:18:59.544Z,1.02
2022-10-14T04:21:26.286Z,1.00
2022-10-14T04:23:53.809Z,1.05
2022-10-14T04:26:32.668Z,1.20
2022-10-14T04:28:59.883Z,1.23
2022-10-14T04:31:40.879Z,0.98
2022-10-14T04:34:07.748Z,0.90
2022-10-14T04:36:38.642Z,0.95
2022-10-14T04:39:18.807Z,1.70
2022-10-14T04:41:46.025Z,1.70
2022-10-14T04:44:15.942Z,1.38
2022-10-14T04:46:48.105Z,1.10
2022-10-14T04:49:16.464Z,1.20
2022-10-14T04:51:50.942Z,1.17
2022-10-14T04:54:32.033Z,1.05
2022-10-14T04:57:00.545Z,1.10
2022-10-14T04:59:29.263Z,1.17
2022-10-14T05:02:16.347Z,1.20
2022-10-14T05:05:01.807Z,1.20
2022-10-14T05:07:34.218Z,1.20
2022-10-14T05:10:16.684Z,1.17
2022-10-14T05:12:43.587Z,1.00
2022-10-14T05:15:11.774Z,1.20
2022-10-14T05:17:50.884Z,1.10
2022-10-14T05:22:53.901Z,0.90
2022-10-14T05:25:20.769Z,1.23
2022-10-14T05:27:48.278Z,1.08
2022-10-14T05:30:16.530Z,1.45
2022-10-14T05:32:47.503Z,1.17
2022-10-14T05:35:14.406Z,1.45
2022-10-14T05:37:41.399Z,1.30
2022-10-14T05:40:09.271Z,1.10
2022-10-14T05:42:37.180Z,1.17
2022-10-14T05:45:05.535Z,1.50
2022-10-14T05:47:35.423Z,1.35
2022-10-14T05:50:12.215Z,1.35
2022-10-14T05:52:42.429Z,1.15
2022-10-14T05:55:16.601Z,1.80
2022-10-14T05:57:45.416Z,1.15
2022-10-14T06:00:19.645Z,1.00
2022-10-14T06:02:54.197Z,0.50
2022-10-14T06:05:21.218Z,0.60
2022-10-14T06:07:48.180Z,0.85
2022-10-14T06:10:16.459Z,0.80
2022-10-14T06:12:43.165Z,0.80
2022-10-14T06:15:10.534Z,0.80
2022-10-14T06:17:37.322Z,0.73
2022-10-14T06:20:04.507Z,1.50
2022-10-14T06:22:31.189Z,2.30
2022-10-14T06:25:03.207Z,2.38
2022-10-14T06:27:33.769Z,2.65
2022-10-14T06:30:00.573Z,3.42
2022-10-14T06:32:27.267Z,3.25
2022-10-14T06:34:53.941Z,2.63
2022-10-14T06:37:20.620Z,2.03
2022-10-14T06:39:47.466Z,1.77
2022-10-14T06:42:14.190Z,1.58
2022-10-14T06:44:40.929Z,1.40
2022-10-14T06:47:09.003Z,1.80
2022-10-14T06:49:35.685Z,1.60
2022-10-14T06:52:02.484Z,1.73
2022-10-14T06:54:35.515Z,1.73
2022-10-14T06:57:05.132Z,1.58
2022-10-14T06:59:31.901Z,2.10
2022-10-14T07:01:58.658Z,1.60
2022-10-14T07:04:25.474Z,1.50
2022-10-14T07:06:52.167Z,1.92
2022-10-14T07:09:19.162Z,2.40
2022-10-14T07:11:45.840Z,1.83
2022-10-14T07:14:12.530Z,1.52
2022-10-14T07:16:39.348Z,1.80
2022-10-14T07:19:06.121Z,2.50
2022-10-14T07:21:32.809Z,3.78
2022-10-14T07:23:59.588Z,5.45
2022-10-14T07:26:26.341Z,5.00
2022-10-14T07:28:53.131Z,3.40
2022-10-14T07:31:19.959Z,2.50
2022-10-14T07:33:46.670Z,1.65
2022-10-14T07:36:18.552Z,1.13
2022-10-14T07:38:48.436Z,1.27
2022-10-14T07:41:18.698Z,1.17
2022-10-14T07:44:03.029Z,1.20
2022-10-14T07:46:32.300Z,0.93
2022-10-14T07:49:03.780Z,0.98
2022-10-14T07:51:31.252Z,1.00
2022-10-14T07:53:59.481Z,1.10
2022-10-14T07:56:27.448Z,1.50
2022-10-14T07:58:55.368Z,1.10
2022-10-14T08:01:24.125Z,1.20
2022-10-14T08:03:51.882Z,1.00
2022-10-14T08:06:18.809Z,0.98
2022-10-14T08:08:45.666Z,0.90
2022-10-14T08:11:18.925Z,1.15
2022-10-14T08:13:46.763Z,1.05
2022-10-14T08:16:19.301Z,0.90
2022-10-14T08:21:14.106Z,1.02
2022-10-14T08:23:40.856Z,1.00
2022-10-14T08:26:22.607Z,1.00
2022-10-14T08:28:50.167Z,1.05
2022-10-14T08:31:17.298Z,0.93
2022-10-14T08:33:44.237Z,1.20
2022-10-14T08:36:11.263Z,0.90
2022-10-14T08:38:38.228Z,1.17
2022-10-14T08:41:25.659Z,1.17
2022-10-14T08:44:16.888Z,1.02
2022-10-14T08:46:52.318Z,1.17
2022-10-14T08:49:31.196Z,0.88
2022-10-14T08:52:08.374Z,0.90
2022-10-14T08:54:39.270Z,0.82
2022-10-14T08:57:12.464Z,0.68
2022-10-14T08:59:41.748Z,0.90
